Time;durP1;ratioP1;P1;durP2;ratioP2;P2;SDS_P1;SDS_P2;PMS_P1;PMS_P2;Temp;Humidity;BMP_temperature;BMP_pressure;BME280_temperature;BME280_humidity;BME280_pressure;Samples;Min_cycle;Max_cycle;Signal;HPM_P1;HPM_P2
2022/09/01 00:00:52;;;;;;;2.92;1.85;;;14.20;99.90;;;;;;4860452;29;20061;-68
2022/09/01 00:03:22;;;;;;;3.13;1.77;;;14.20;99.90;;;;;;4856841;29;20057;-68
2022/09/01 00:05:48;;;;;;;4.80;1.80;;;14.10;99.90;;;;;;4838596;29;20068;-68
2022/09/01 00:08:14;;;;;;;3.95;1.55;;;14.10;99.90;;;;;;4846728;29;20075;-68
2022/09/01 00:10:40;;;;;;;1.92;1.63;;;14.10;99.90;;;;;;4853910;29;20128;-68
2022/09/01 00:13:07;;;;;;;2.95;1.50;;;14.00;99.90;;;;;;4848097;29;20132;-67
2022/09/01 00:15:35;;;;;;;3.08;1.83;;;14.10;99.90;;;;;;4854067;29;20058;-68
2022/09/01 00:18:01;;;;;;;3.75;1.60;;;14.00;99.90;;;;;;4858833;29;20069;-68
2022/09/01 00:20:27;;;;;;;4.55;1.77;;;14.00;99.90;;;;;;4854787;29;20113;-68
2022/09/01 00:22:54;;;;;;;4.70;1.90;;;14.00;99.90;;;;;;4860084;29;20134;-68
2022/09/01 00:25:22;;;;;;;3.25;1.92;;;14.00;99.90;;;;;;4857066;29;20141;-68
2022/09/01 00:27:48;;;;;;;2.45;1.73;;;13.90;99.90;;;;;;4862150;29;20049;-68
2022/09/01 00:30:14;;;;;;;3.20;1.67;;;13.90;99.90;;;;;;4853705;29;20124;-68
2022/09/01 00:33:05;;;;;;;2.33;1.70;;;13.90;99.90;;;;;;4861208;29;20144;-68
2022/09/01 00:35:30;;;;;;;2.22;1.60;;;13.90;99.90;;;;;;4859481;29;20406;-68
2022/09/01 00:37:58;;;;;;;1.48;1.38;;;13.90;99.90;;;;;;4828962;29;20053;-68
2022/09/01 00:40:33;;;;;;;2.88;1.90;;;13.80;99.90;;;;;;4830158;29;20064;-68
2022/09/01 00:42:59;;;;;;;4.10;1.80;;;13.80;99.90;;;;;;4845269;29;20064;-68
2022/09/01 00:45:25;;;;;;;2.97;1.70;;;13.80;99.90;;;;;;4858360;29;20061;-68
2022/09/01 00:47:51;;;;;;;1.60;1.40;;;13.80;99.90;;;;;;4842606;29;20064;-68
2022/09/01 00:50:21;;;;;;;1.85;1.70;;;13.80;99.90;;;;;;4841048;29;20057;-68
2022/09/01 00:52:54;;;;;;;1.80;1.70;;;13.70;99.90;;;;;;4854512;29;20052;-69
2022/09/01 00:55:25;;;;;;;;;;;13.70;99.90;;;;;;4829109;29;20087;-68
2022/09/01 00:57:51;;;;;;;2.92;1.70;;;13.70;99.90;;;;;;4853436;29;19931;-68
2022/09/01 01:00:23;;;;;;;1.95;1.40;;;13.70;99.90;;;;;;4860052;29;20136;-68
2022/09/01 01:02:54;;;;;;;3.03;1.70;;;13.70;99.90;;;;;;4843263;29;20057;-68
2022/09/01 01:05:22;;;;;;;1.77;1.67;;;13.60;99.90;;;;;;4857579;29;20041;-68
2022/09/01 01:07:49;;;;;;;2.42;1.60;;;13.60;99.90;;;;;;4859808;29;20114;-68
2022/09/01 01:10:17;;;;;;;2.55;1.52;;;13.60;99.90;;;;;;4842488;29;20148;-68
2022/09/01 01:12:44;;;;;;;1.95;1.70;;;13.30;99.90;;;;;;4844157;29;20092;-68
2022/09/01 01:15:14;;;;;;;2.90;1.70;;;13.50;99.90;;;;;;4835384;29;20060;-68
2022/09/01 01:17:39;;;;;;;2.72;1.95;;;13.50;99.90;;;;;;4826445;29;20058;-68
2022/09/01 01:23:01;;;;;;;2.13;1.50;;;13.50;99.90;;;;;;4844643;29;20054;-68
2022/09/01 01:25:28;;;;;;;1.83;1.55;;;13.40;99.90;;;;;;4848452;29;20129;-68
2022/09/01 01:28:30;;;;;;;1.92;1.70;;;13.40;99.90;;;;;;4847626;29;20482;-68
2022/09/01 01:31:04;;;;;;;4.35;1.85;;;13.40;99.90;;;;;;4826988;29;20395;-68
2022/09/01 01:33:52;;;;;;;1.50;1.30;;;13.40;99.90;;;;;;4859506;29;20068;-68
2022/09/01 01:36:31;;;;;;;2.22;1.60;;;13.30;99.90;;;;;;4857348;29;20045;-68
2022/09/01 01:39:00;;;;;;;2.63;1.45;;;13.30;99.90;;;;;;4859411;29;20064;-68
2022/09/01 01:41:28;;;;;;;2.60;1.48;;;13.30;99.90;;;;;;4845357;29;20065;-68
2022/09/01 01:43:57;;;;;;;3.70;1.70;;;13.30;99.90;;;;;;4841622;29;20117;-68
2022/09/01 01:46:24;;;;;;;1.77;1.60;;;13.20;99.90;;;;;;4840522;29;20056;-68
2022/09/01 01:48:51;;;;;;;2.40;1.60;;;13.20;99.90;;;;;;4860970;29;20053;-68
2022/09/01 01:51:20;;;;;;;2.80;1.67;;;13.20;99.90;;;;;;4855109;29;20076;-68
2022/09/01 01:53:46;;;;;;;2.20;1.75;;;13.20;99.90;;;;;;4841446;29;20073;-68
2022/09/01 01:56:13;;;;;;;2.67;1.58;;;13.20;99.90;;;;;;4841207;29;20053;-68
2022/09/01 01:58:39;;;;;;;1.83;1.60;;;13.20;99.90;;;;;;4858566;29;20092;-68
2022/09/01 02:01:09;;;;;;;2.88;1.63;;;13.20;99.90;;;;;;4856564;29;20073;-68
2022/09/01 02:03:35;;;;;;;3.22;2.08;;;13.10;99.90;;;;;;4860417;29;20430;-67
2022/09/01 02:06:03;;;;;;;2.28;1.80;;;13.10;99.90;;;;;;4826398;29;20140;-68
2022/09/01 02:08:29;;;;;;;2.80;1.80;;;13.00;99.90;;;;;;4860176;29;20065;-68
2022/09/01 02:10:56;;;;;;;4.63;1.63;;;13.00;99.90;;;;;;4858975;29;20398;-68
2022/09/01 02:13:29;;;;;;;2.22;1.88;;;13.00;99.90;;;;;;4852249;29;20049;-68
2022/09/01 02:15:57;;;;;;;2.20;1.73;;;13.00;99.90;;;;;;4831964;29;20064;-68
2022/09/01 02:18:27;;;;;;;2.45;1.70;;;12.90;99.90;;;;;;4856989;29;20430;-68
2022/09/01 02:20:54;;;;;;;2.25;1.75;;;12.90;99.90;;;;;;4849729;29;20137;-68
2022/09/01 02:23:24;;;;;;;1.90;1.80;;;12.90;99.90;;;;;;4849558;29;20092;-68
2022/09/01 02:25:53;;;;;;;2.38;1.65;;;12.90;99.90;;;;;;4847506;29;20559;-68
2022/09/01 02:28:20;;;;;;;1.95;1.80;;;12.90;99.90;;;;;;4860763;29;20057;-68
2022/09/01 02:30:50;;;;;;;3.95;1.67;;;12.80;99.90;;;;;;4848587;29;20060;-68
2022/09/01 02:33:20;;;;;;;1.95;1.75;;;12.80;99.90;;;;;;4847881;29;20448;-68
2022/09/01 02:35:49;;;;;;;2.55;2.00;;;12.80;99.90;;;;;;4862056;29;20466;-68
2022/09/01 02:38:16;;;;;;;2.45;1.80;;;12.80;99.90;;;;;;4847173;29;20072;-68
2022/09/01 02:40:44;;;;;;;2.85;1.90;;;12.80;99.90;;;;;;4847481;29;20153;-68
2022/09/01 02:43:10;;;;;;;2.20;1.63;;;12.70;99.90;;;;;;4852490;29;20075;-68
2022/09/01 02:45:37;;;;;;;2.08;1.80;;;12.70;99.90;;;;;;4864862;29;20108;-68
2022/09/01 02:48:09;;;;;;;2.88;1.75;;;12.70;99.90;;;;;;4841044;29;20057;-68
2022/09/01 02:50:39;;;;;;;1.95;1.77;;;12.70;99.90;;;;;;4851477;29;20062;-68
2022/09/01 02:53:08;;;;;;;4.40;2.05;;;12.70;99.90;;;;;;4847735;29;20073;-68
2022/09/01 02:55:35;;;;;;;2.33;1.90;;;12.70;99.90;;;;;;4847263;29;20116;-68
2022/09/01 02:58:01;;;;;;;3.00;1.90;;;12.70;99.90;;;;;;4864063;29;20053;-68
2022/09/01 03:00:36;;;;;;;3.67;1.90;;;12.70;99.90;;;;;;4865471;29;20072;-68
2022/09/01 03:03:02;;;;;;;3.60;1.95;;;12.70;99.90;;;;;;4836772;29;20050;-68
2022/09/01 03:05:31;;;;;;;2.80;2.03;;;12.70;99.90;;;;;;4862461;29;20061;-69
2022/09/01 03:07:59;;;;;;;1.92;1.83;;;12.70;99.90;;;;;;4860629;29;20046;-68
2022/09/01 03:10:31;;;;;;;2.00;1.80;;;12.70;99.90;;;;;;4850522;29;20057;-68
2022/09/01 03:12:59;;;;;;;;;;;12.70;99.90;;;;;;4860458;29;20106;-68
2022/09/01 03:15:26;;;;;;;2.50;2.10;;;12.60;99.90;;;;;;4854649;29;19929;-68
2022/09/01 03:17:51;;;;;;;2.05;1.83;;;12.60;99.90;;;;;;4850965;29;20502;-68
2022/09/01 03:20:20;;;;;;;1.98;1.80;;;12.60;99.90;;;;;;4846654;29;20080;-68
2022/09/01 03:22:47;;;;;;;2.28;1.70;;;12.60;99.90;;;;;;4829440;29;20060;-68
2022/09/01 03:25:13;;;;;;;2.08;1.90;;;12.60;99.90;;;;;;4863556;29;20058;-68
2022/09/01 03:27:39;;;;;;;2.10;1.90;;;12.60;99.90;;;;;;4844886;29;20063;-68
2022/09/01 03:30:05;;;;;;;2.22;2.03;;;12.60;99.90;;;;;;4844017;29;20069;-68
2022/09/01 03:32:31;;;;;;;1.90;1.80;;;12.60;99.90;;;;;;4843128;29;20057;-68
2022/09/01 03:34:57;;;;;;;2.88;1.90;;;12.60;99.90;;;;;;4845152;29;20057;-68
2022/09/01 03:37:23;;;;;;;4.07;1.95;;;12.60;99.90;;;;;;4841619;29;20045;-68
2022/09/01 03:39:48;;;;;;;4.60;2.03;;;12.70;99.90;;;;;;4861165;29;20203;-68
2022/09/01 03:42:26;;;;;;;2.53;1.90;;;12.60;99.90;;;;;;4861018;29;20045;-68
2022/09/01 03:44:52;;;;;;;2.55;1.77;;;12.60;99.90;;;;;;4846184;29;20053;-68
2022/09/01 03:47:20;;;;;;;3.65;2.10;;;12.60;99.90;;;;;;4843829;29;20530;-68
2022/09/01 03:49:48;;;;;;;4.07;1.77;;;12.60;99.90;;;;;;4861108;29;20045;-67
2022/09/01 03:52:16;;;;;;;2.13;1.92;;;12.60;99.90;;;;;;4841337;29;20060;-68
2022/09/01 03:54:42;;;;;;;2.75;1.65;;;12.60;99.90;;;;;;4856599;29;20053;-68
2022/09/01 03:57:09;;;;;;;4.82;2.00;;;12.60;99.90;;;;;;4850784;29;20058;-68
2022/09/01 03:59:37;;;;;;;2.05;1.90;;;12.60;99.90;;;;;;4844386;29;20136;-68
2022/09/01 04:02:03;;;;;;;2.25;2.05;;;12.60;99.90;;;;;;4854069;29;20400;-68
2022/09/01 04:04:32;;;;;;;1.98;1.80;;;12.60;99.90;;;;;;4833295;29;20062;-68
2022/09/01 04:06:59;;;;;;;4.50;1.92;;;12.70;99.90;;;;;;4856616;29;20084;-68
2022/09/01 04:09:25;;;;;;;2.85;1.90;;;12.70;99.90;;;;;;4860347;29;20057;-68
2022/09/01 04:11:51;;;;;;;1.80;1.70;;;12.70;99.90;;;;;;4845547;29;20056;-68
2022/09/01 04:14:17;;;;;;;3.50;2.10;;;12.70;99.90;;;;;;4858651;29;20049;-68
2022/09/01 04:19:29;;;;;;;2.47;2.00;;;12.70;99.90;;;;;;4860704;29;20061;-68
2022/09/01 04:21:59;;;;;;;2.65;2.10;;;12.70;99.90;;;;;;4859903;29;20101;-68
2022/09/01 04:24:27;;;;;;;3.35;1.65;;;12.70;99.90;;;;;;4842592;29;20148;-68
2022/09/01 04:26:55;;;;;;;3.15;2.08;;;12.70;99.90;;;;;;4845048;29;20058;-68
2022/09/01 04:29:27;;;;;;;3.08;2.20;;;12.70;99.90;;;;;;4860714;29;20137;-68
2022/09/01 04:32:01;;;;;;;3.90;2.28;;;12.70;99.90;;;;;;4851225;29;20084;-68
2022/09/01 04:34:41;;;;;;;2.50;2.30;;;12.70;99.90;;;;;;4858001;29;20109;-68
2022/09/01 04:37:13;;;;;;;2.20;1.80;;;12.70;99.90;;;;;;4857804;29;20129;-68
2022/09/01 04:39:47;;;;;;;2.83;2.00;;;12.70;99.90;;;;;;4845379;29;20056;-68
2022/09/01 04:42:13;;;;;;;3.63;2.10;;;12.90;99.90;;;;;;4842757;29;20058;-68
2022/09/01 04:44:38;;;;;;;2.75;2.00;;;12.70;99.90;;;;;;4844639;29;20394;-68
2022/09/01 04:47:09;;;;;;;2.25;2.05;;;12.70;99.90;;;;;;4866465;29;20072;-68
2022/09/01 04:49:36;;;;;;;2.83;2.30;;;12.70;99.90;;;;;;4879010;29;20540;-68
2022/09/01 04:52:02;;;;;;;2.25;1.90;;;12.70;99.90;;;;;;4861301;29;20487;-68
2022/09/01 04:54:29;;;;;;;2.28;2.08;;;12.70;99.90;;;;;;4880173;29;20125;-68
2022/09/01 04:56:55;;;;;;;3.88;2.30;;;12.70;99.90;;;;;;4878415;29;20061;-68
2022/09/01 04:59:23;;;;;;;2.97;2.08;;;12.70;99.90;;;;;;4863187;29;20064;-67
2022/09/01 05:01:49;;;;;;;2.72;2.10;;;12.70;99.90;;;;;;4868916;29;20057;-68
2022/09/01 05:04:18;;;;;;;3.22;2.13;;;12.70;99.90;;;;;;4865714;29;20166;-68
2022/09/01 05:06:48;;;;;;;2.25;1.98;;;12.70;99.90;;;;;;4866453;29;20085;-68
2022/09/01 05:09:16;;;;;;;3.65;1.98;;;12.70;99.90;;;;;;4869937;29;20045;-68
2022/09/01 05:11:44;;;;;;;4.32;2.13;;;12.70;99.90;;;;;;4850948;29;20148;-68
2022/09/01 05:14:11;;;;;;;4.68;2.60;;;12.70;99.90;;;;;;4879876;29;20051;-69
2022/09/01 05:16:39;;;;;;;2.55;2.33;;;12.70;99.90;;;;;;4873304;29;20069;-68
2022/09/01 05:19:06;;;;;;;2.30;1.98;;;12.70;99.90;;;;;;4860299;29;20064;-68
2022/09/01 05:21:32;;;;;;;3.25;2.20;;;12.70;99.90;;;;;;4844941;29;20149;-68
2022/09/01 05:24:00;;;;;;;3.28;2.22;;;12.70;99.90;;;;;;4863505;29;20064;-68
2022/09/01 05:26:32;;;;;;;3.85;2.30;;;12.70;99.90;;;;;;4845775;29;20061;-68
2022/09/01 05:29:01;;;;;;;2.85;2.10;;;12.70;99.90;;;;;;4866453;29;20076;-68
2022/09/01 05:31:36;;;;;;;2.70;2.28;;;12.70;99.90;;;;;;4852970;29;20089;-68
2022/09/01 05:34:03;;;;;;;2.75;2.25;;;12.70;99.90;;;;;;4874184;29;20056;-68
2022/09/01 05:36:32;;;;;;;3.15;2.13;;;12.70;99.90;;;;;;4860887;29;20067;-68
2022/09/01 05:39:03;;;;;;;2.95;2.35;;;12.70;99.90;;;;;;4877932;29;20414;-68
2022/09/01 05:41:29;;;;;;;4.50;2.42;;;12.80;99.90;;;;;;4877125;29;20045;-69
2022/09/01 05:43:55;;;;;;;2.40;2.20;;;12.80;99.90;;;;;;4874174;29;20570;-68
2022/09/01 05:46:25;;;;;;;3.05;2.20;;;12.80;99.90;;;;;;4875292;29;20100;-67
2022/09/01 05:48:52;;;;;;;3.20;2.35;;;12.80;99.90;;;;;;4861396;29;20140;-68
2022/09/01 05:51:25;;;;;;;2.45;2.20;;;12.90;99.90;;;;;;4859789;29;20056;-68
2022/09/01 05:53:55;;;;;;;2.75;2.03;;;12.90;99.90;;;;;;4861508;29;20177;-68
2022/09/01 05:56:21;;;;;;;2.70;2.30;;;13.00;99.90;;;;;;4878305;29;20076;-68
2022/09/01 05:58:47;;;;;;;2.70;2.33;;;13.00;99.90;;;;;;4877948;29;20559;-68
2022/09/01 06:01:25;;;;;;;2.40;2.20;;;13.00;99.90;;;;;;4872316;29;20095;-68
2022/09/01 06:03:56;;;;;;;2.50;2.30;;;13.10;99.90;;;;;;4854177;29;20084;-68
2022/09/01 06:06:29;;;;;;;2.83;2.25;;;13.20;99.90;;;;;;4861916;29;20159;-68
2022/09/01 06:08:58;;;;;;;;;;;13.20;99.90;;;;;;4862510;29;20057;-68
2022/09/01 06:11:25;;;;;;;3.65;2.25;;;13.30;99.90;;;;;;4878751;29;19924;-68
2022/09/01 06:13:55;;;;;;;3.75;2.40;;;13.40;99.90;;;;;;4875428;29;20049;-69
2022/09/01 06:16:23;;;;;;;5.32;2.30;;;13.50;99.90;;;;;;4860570;29;20057;-68
2022/09/01 06:18:52;;;;;;;2.75;2.40;;;13.50;99.90;;;;;;4862279;29;20499;-68
2022/09/01 06:21:19;;;;;;;4.07;2.75;;;13.60;99.90;;;;;;4860131;29;20056;-68
2022/09/01 06:23:44;;;;;;;2.53;2.20;;;13.70;99.90;;;;;;4878768;29;20148;-68
2022/09/01 06:26:27;;;;;;;2.80;2.35;;;13.80;99.90;;;;;;4846570;29;20185;-68
2022/09/01 06:29:00;;;;;;;3.47;2.28;;;13.90;99.90;;;;;;4879077;29;20052;-68
2022/09/01 06:31:32;;;;;;;3.33;2.40;;;14.00;99.90;;;;;;4877197;29;20049;-68
2022/09/01 06:33:59;;;;;;;3.00;2.35;;;14.10;99.90;;;;;;4868023;29;20049;-68
2022/09/01 06:36:25;;;;;;;3.35;2.55;;;14.10;99.90;;;;;;4878876;29;20405;-68
2022/09/01 06:38:52;;;;;;;4.13;2.20;;;14.30;99.90;;;;;;4878952;29;20068;-68
2022/09/01 06:41:19;;;;;;;5.50;2.13;;;14.30;99.90;;;;;;4878630;29;20094;-67
2022/09/01 06:43:52;;;;;;;7.10;2.40;;;14.40;99.90;;;;;;4862366;29;20383;-68
2022/09/01 06:46:20;;;;;;;4.72;2.78;;;14.60;99.90;;;;;;4858300;29;20082;-68
2022/09/01 06:48:46;;;;;;;16.33;4.22;;;14.60;99.90;;;;;;4859054;29;20430;-68
2022/09/01 06:51:19;;;;;;;6.28;2.90;;;14.70;99.90;;;;;;4816838;29;20062;-68
2022/09/01 06:53:49;;;;;;;5.53;2.35;;;14.90;99.90;;;;;;4859789;29;20137;-69
2022/09/01 06:56:17;;;;;;;6.75;2.20;;;14.90;99.90;;;;;;4837649;29;20057;-68
2022/09/01 06:58:47;;;;;;;2.33;2.13;;;15.00;99.90;;;;;;4856645;29;20077;-68
2022/09/01 07:01:18;;;;;;;3.22;2.10;;;15.10;99.90;;;;;;4831947;29;20053;-69
2022/09/01 07:03:46;;;;;;;3.80;2.30;;;15.20;99.90;;;;;;4857174;29;20065;-68
2022/09/01 07:06:13;;;;;;;4.07;2.40;;;15.30;99.90;;;;;;4853340;29;20103;-68
2022/09/01 07:08:40;;;;;;;4.88;2.30;;;15.50;99.90;;;;;;4853851;29;20056;-67
2022/09/01 07:11:08;;;;;;;10.15;2.70;;;15.50;99.90;;;;;;4854585;29;20421;-68
2022/09/01 07:13:35;;;;;;;2.88;1.92;;;15.50;99.90;;;;;;4813210;29;20108;-68
2022/09/01 07:16:05;;;;;;;2.40;2.20;;;15.60;99.90;;;;;;4828075;29;20053;-67
2022/09/01 07:18:31;;;;;;;2.30;2.10;;;15.80;99.90;;;;;;4812851;29;20086;-67
2022/09/01 07:20:57;;;;;;;2.30;1.95;;;15.80;99.90;;;;;;4845105;29;20082;-67
2022/09/01 07:23:23;;;;;;;5.15;1.88;;;16.00;99.90;;;;;;4854724;29;20096;-68
2022/09/01 07:25:54;;;;;;;2.55;1.80;;;16.10;99.90;;;;;;4848460;29;20050;-67
2022/09/01 07:28:22;;;;;;;2.38;2.17;;;16.30;99.90;;;;;;4828323;29;20060;-67
2022/09/01 07:30:51;;;;;;;5.13;2.45;;;16.40;99.90;;;;;;4852685;29;20045;-67
2022/09/01 07:33:21;;;;;;;4.32;2.05;;;16.50;99.90;;;;;;4836380;29;20486;-67
2022/09/01 07:35:46;;;;;;;2.20;2.00;;;16.50;99.90;;;;;;4832576;29;20129;-67
2022/09/01 07:38:12;;;;;;;5.78;2.10;;;16.60;99.90;;;;;;4852695;29;20133;-67
2022/09/01 07:40:41;;;;;;;3.03;2.30;;;16.70;99.90;;;;;;4851203;29;20085;-67
2022/09/01 07:43:14;;;;;;;3.22;2.13;;;16.90;99.90;;;;;;4857055;29;20050;-67
2022/09/01 07:45:45;;;;;;;2.67;1.90;;;17.00;99.90;;;;;;4852752;29;20472;-67
2022/09/01 07:48:13;;;;;;;3.70;1.70;;;17.10;99.90;;;;;;4851653;29;20221;-67
2022/09/01 07:50:46;;;;;;;3.58;2.00;;;17.10;99.90;;;;;;4857798;29;20153;-67
2022/09/01 07:53:21;;;;;;;2.40;2.00;;;17.20;99.90;;;;;;4835962;29;20046;-67
2022/09/01 07:55:49;;;;;;;2.03;1.83;;;17.30;99.90;;;;;;4853533;29;20484;-67
2022/09/01 07:58:16;;;;;;;3.05;1.85;;;17.50;99.90;;;;;;4844343;29;20057;-68
2022/09/01 08:00:45;;;;;;;4.65;2.22;;;17.40;99.90;;;;;;4827696;29;20133;-68
2022/09/01 08:03:11;;;;;;;3.22;1.65;;;17.50;99.90;;;;;;4827545;29;20053;-68
2022/09/01 08:05:36;;;;;;;3.28;2.10;;;17.70;99.90;;;;;;4827628;29;20066;-68
2022/09/01 08:08:03;;;;;;;3.13;1.70;;;17.80;99.90;;;;;;4843729;29;20117;-67
2022/09/01 08:10:28;;;;;;;4.65;1.73;;;18.00;99.90;;;;;;4843825;29;20503;-67
2022/09/01 08:12:54;;;;;;;2.00;1.77;;;18.10;99.90;;;;;;4843764;29;20154;-67
2022/09/01 08:15:20;;;;;;;1.90;1.63;;;18.10;99.90;;;;;;4827018;29;20484;-67
2022/09/01 08:17:45;;;;;;;2.17;1.92;;;18.20;99.90;;;;;;4860244;29;20419;-67
2022/09/01 08:20:11;;;;;;;1.60;1.48;;;18.30;99.90;;;;;;4839509;29;20050;-67
2022/09/01 08:22:38;;;;;;;4.18;1.83;;;18.30;99.90;;;;;;4853679;29;20050;-67
2022/09/01 08:25:08;;;;;;;3.60;1.83;;;18.50;99.90;;;;;;4857919;29;20060;-67
2022/09/01 08:27:37;;;;;;;1.77;1.45;;;18.70;99.90;;;;;;4836000;29;20062;-68
2022/09/01 08:30:04;;;;;;;5.80;1.88;;;18.80;99.90;;;;;;4853507;29;20046;-68
2022/09/01 08:32:29;;;;;;;2.78;1.60;;;18.80;99.90;;;;;;4851094;29;20499;-68
2022/09/01 08:34:56;;;;;;;2.15;1.70;;;18.90;99.90;;;;;;4858273;29;20129;-68
2022/09/01 08:37:22;;;;;;;3.38;1.50;;;19.00;99.90;;;;;;4849344;29;20129;-68
2022/09/01 08:39:48;;;;;;;6.55;1.60;;;19.00;99.90;;;;;;4835768;29;20078;-69
2022/09/01 08:42:38;;;;;;;4.50;1.77;;;19.10;99.90;;;;;;4837782;29;20060;-68
2022/09/01 08:45:24;;;;;;;2.80;1.35;;;19.10;99.90;;;;;;4852720;29;20049;-66
2022/09/01 08:47:56;;;;;;;2.15;1.60;;;19.30;99.90;;;;;;4833736;29;20566;-66
2022/09/01 08:50:22;;;;;;;1.80;1.20;;;19.40;99.90;;;;;;4826757;29;20058;-67
2022/09/01 08:53:01;;;;;;;3.08;1.20;;;19.50;99.90;;;;;;4826359;29;20128;-66
2022/09/01 08:55:43;;;;;;;3.17;1.40;;;19.60;99.90;;;;;;4827090;29;20058;-66
2022/09/01 08:58:12;;;;;;;2.72;1.10;;;19.70;99.90;;;;;;4842841;29;20503;-68
2022/09/01 09:00:43;;;;;;;5.25;1.52;;;19.90;99.90;;;;;;4827967;29;20491;-67
2022/09/01 09:03:21;;;;;;;2.85;1.15;;;20.10;99.90;;;;;;4860016;29;20114;-66
2022/09/01 09:05:55;;;;;;;4.70;1.13;;;20.20;99.90;;;;;;4844382;29;20057;-66
2022/09/01 09:08:42;;;;;;;1.20;1.10;;;20.30;99.90;;;;;;4837459;29;20452;-66
2022/09/01 09:11:23;;;;;;;1.27;1.00;;;20.40;99.90;;;;;;4850494;29;20068;-67
2022/09/01 09:13:58;;;;;;;1.70;0.88;;;20.50;99.90;;;;;;4850819;29;20518;-67
2022/09/01 09:16:28;;;;;;;3.00;0.80;;;20.70;99.90;;;;;;4852501;29;20049;-68
2022/09/01 09:18:58;;;;;;;2.78;0.98;;;20.80;99.90;;;;;;4835576;29;20098;-67
2022/09/01 09:21:32;;;;;;;3.22;0.88;;;20.80;99.90;;;;;;4818699;29;20049;-67
2022/09/01 09:24:21;;;;;;;2.70;0.85;;;20.70;99.90;;;;;;4856170;29;20495;-66
2022/09/01 09:26:56;;;;;;;2.20;0.93;;;20.90;99.90;;;;;;4843693;29;20049;-67
2022/09/01 09:29:22;;;;;;;1.52;0.70;;;21.00;99.90;;;;;;4844688;29;20061;-67
2022/09/01 09:31:48;;;;;;;1.48;0.77;;;21.10;99.90;;;;;;4860968;29;20114;-66
2022/09/01 09:34:36;;;;;;;4.47;1.10;;;21.20;99.60;;;;;;4844059;29;20049;-67
2022/09/01 09:37:27;;;;;;;1.95;0.82;;;21.30;96.60;;;;;;4839133;29;20053;-67
2022/09/01 09:40:08;;;;;;;3.25;0.90;;;21.50;96.00;;;;;;4844245;29;20427;-67
2022/09/01 09:42:38;;;;;;;1.25;0.50;;;21.70;91.30;;;;;;4860718;29;20124;-67
2022/09/01 09:45:24;;;;;;;1.58;0.60;;;21.60;93.20;;;;;;4860870;29;20156;-68
2022/09/01 09:47:50;;;;;;;2.10;1.00;;;21.60;92.50;;;;;;4860018;29;20068;-67
2022/09/01 09:50:28;;;;;;;2.78;0.70;;;21.70;90.70;;;;;;4859009;29;20085;-67
2022/09/01 09:53:15;;;;;;;0.93;0.60;;;21.70;85.20;;;;;;4841819;29;20113;-68
2022/09/01 09:55:55;;;;;;;2.85;0.70;;;21.70;83.70;;;;;;4842535;29;20536;-67
2022/09/01 09:58:25;;;;;;;1.35;0.73;;;21.50;81.40;;;;;;4851788;29;20053;-67
2022/09/01 10:01:14;;;;;;;1.25;0.70;;;21.30;85.40;;;;;;4850137;29;20061;-67
2022/09/01 10:03:49;;;;;;;1.33;0.65;;;21.50;86.50;;;;;;4850895;29;20089;-67
2022/09/01 10:06:36;;;;;;;1.67;0.70;;;21.60;82.60;;;;;;4849741;29;20062;-66
2022/09/01 10:09:08;;;;;;;1.98;0.77;;;21.80;84.20;;;;;;4859186;29;20499;-68
2022/09/01 10:11:41;;;;;;;2.15;0.80;;;21.90;81.80;;;;;;4859969;29;20136;-67
2022/09/01 10:14:20;;;;;;;1.67;0.60;;;21.80;80.80;;;;;;4860542;29;20402;-67
2022/09/01 10:17:03;;;;;;;1.38;0.77;;;21.80;78.90;;;;;;4858982;29;20054;-67
2022/09/01 10:19:34;;;;;;;0.90;0.63;;;21.80;75.80;;;;;;4847599;29;20495;-68
2022/09/01 10:22:01;;;;;;;0.45;0.45;;;22.00;76.70;;;;;;4837837;29;20069;-67
2022/09/01 10:24:35;;;;;;;0.70;0.70;;;22.30;76.10;;;;;;4842129;29;20153;-68
2022/09/01 10:27:17;;;;;;;1.75;0.60;;;22.30;71.20;;;;;;4841530;29;20506;-68
2022/09/01 10:29:48;;;;;;;2.33;0.70;;;22.30;73.40;;;;;;4851156;29;20483;-68
2022/09/01 10:32:25;;;;;;;1.08;0.70;;;22.30;72.40;;;;;;4849440;29;20065;-67
2022/09/01 10:34:51;;;;;;;1.27;0.68;;;22.30;72.00;;;;;;4855160;29;20072;-68
2022/09/01 10:37:17;;;;;;;3.00;0.80;;;22.50;73.00;;;;;;4845444;29;20470;-68
2022/09/01 10:40:09;;;;;;;0.57;0.50;;;22.70;72.00;;;;;;4862349;29;20060;-68
2022/09/01 10:42:35;;;;;;;2.65;0.50;;;22.80;66.00;;;;;;4839040;29;20098;-67
2022/09/01 10:45:01;;;;;;;1.02;0.90;;;22.90;69.40;;;;;;4858088;29;20049;-68
2022/09/01 10:47:32;;;;;;;0.95;0.50;;;22.80;68.10;;;;;;4838359;29;20092;-68
2022/09/01 10:50:23;;;;;;;1.23;0.50;;;22.70;67.90;;;;;;4828965;29;20053;-68
2022/09/01 10:52:54;;;;;;;3.38;0.88;;;22.60;66.70;;;;;;4842774;29;20061;-68
2022/09/01 10:55:27;;;;;;;4.57;0.70;;;22.60;68.60;;;;;;4845632;29;20391;-68
2022/09/01 10:58:04;;;;;;;1.85;0.93;;;22.60;68.50;;;;;;4843884;29;20108;-68
2022/09/01 11:00:30;;;;;;;2.88;0.65;;;22.50;67.50;;;;;;4845412;29;20064;-68
2022/09/01 11:03:31;;;;;;;0.60;0.60;;;22.40;66.90;;;;;;4844410;29;20061;-68
2022/09/01 11:06:06;;;;;;;1.60;0.90;;;22.30;66.10;;;;;;4861217;29;20105;-68
2022/09/01 11:08:31;;;;;;;2.05;0.70;;;22.20;66.50;;;;;;4846335;29;20100;-67
2022/09/01 11:11:25;;;;;;;0.77;0.77;;;22.20;66.70;;;;;;4847333;29;20084;-66
2022/09/01 11:13:54;;;;;;;12.88;1.13;;;22.20;64.80;;;;;;4863642;29;20064;-66
2022/09/01 11:16:38;;;;;;;5.15;0.90;;;22.10;65.60;;;;;;4860638;29;20101;-67
2022/09/01 11:19:28;;;;;;;1.38;0.70;;;22.10;65.40;;;;;;4839974;29;20057;-67
2022/09/01 11:22:11;;;;;;;4.22;1.00;;;22.10;64.80;;;;;;4852462;29;20092;-67
2022/09/01 11:24:37;;;;;;;2.35;0.80;;;22.10;64.90;;;;;;4845047;29;20057;-67
2022/09/01 11:27:04;;;;;;;1.73;0.75;;;22.20;66.50;;;;;;4828013;29;20521;-64
2022/09/01 11:29:50;;;;;;;3.65;0.82;;;22.30;66.50;;;;;;4816571;29;20479;-67
2022/09/01 11:32:17;;;;;;;3.78;0.70;;;22.50;64.20;;;;;;4861929;29;20058;-65
2022/09/01 11:34:44;;;;;;;0.55;0.52;;;22.20;65.70;;;;;;4863802;29;20081;-64
2022/09/01 11:37:20;;;;;;;1.65;0.60;;;22.20;65.60;;;;;;4861722;29;20522;-66
2022/09/01 11:39:50;;;;;;;3.13;0.80;;;22.50;64.60;;;;;;4844785;29;20058;-66
2022/09/01 11:42:22;;;;;;;8.75;1.35;;;22.60;64.70;;;;;;4844497;29;20058;-66
2022/09/01 11:45:12;;;;;;;2.88;0.73;;;22.90;65.10;;;;;;4847039;29;20121;-66
2022/09/01 11:47:42;;;;;;;2.00;0.82;;;23.20;63.60;;;;;;4851853;29;20137;-66
2022/09/01 11:50:32;;;;;;;6.18;0.70;;;23.10;62.50;;;;;;4859732;29;20073;-66
2022/09/01 11:53:12;;;;;;;1.55;0.88;;;23.00;62.10;;;;;;4827630;29;20073;-65
2022/09/01 11:55:39;;;;;;;3.90;0.70;;;22.90;62.30;;;;;;4828132;29;20110;-66
2022/09/01 11:58:05;;;;;;;1.77;0.70;;;22.90;62.00;;;;;;4843200;29;20129;-66
2022/09/01 12:00:37;;;;;;;3.13;0.77;;;22.80;61.90;;;;;;4833027;29;20102;-66
2022/09/01 12:03:24;;;;;;;0.88;0.73;;;22.60;62.00;;;;;;4852734;29;20062;-66
2022/09/01 12:05:58;;;;;;;1.08;0.65;;;22.40;63.00;;;;;;4843793;29;20058;-67
2022/09/01 12:08:26;;;;;;;1.40;0.55;;;22.40;63.90;;;;;;4845502;29;20053;-66
2022/09/01 12:11:18;;;;;;;2.60;0.70;;;22.60;63.60;;;;;;4858480;29;20124;-67
2022/09/01 12:13:58;;;;;;;3.13;0.82;;;22.70;62.70;;;;;;4836458;29;20054;-66
2022/09/01 12:16:24;;;;;;;2.47;0.60;;;23.00;63.60;;;;;;4854003;29;20050;-67
2022/09/01 12:18:52;;;;;;;1.58;0.80;;;23.10;62.90;;;;;;4837374;29;20050;-66
2022/09/01 12:21:39;;;;;;;0.63;0.60;;;23.00;61.90;;;;;;4821173;29;20045;-66
2022/09/01 12:24:17;;;;;;;0.82;0.57;;;22.90;61.80;;;;;;4842416;29;20771;-66
2022/09/01 12:26:44;;;;;;;2.85;0.65;;;22.70;61.40;;;;;;4858761;29;20050;-67
2022/09/01 12:29:12;;;;;;;1.73;0.65;;;22.70;61.60;;;;;;4838673;29;20049;-66
2022/09/01 12:31:42;;;;;;;2.47;0.70;;;22.90;61.60;;;;;;4836481;29;20408;-66
2022/09/01 12:34:27;;;;;;;0.93;0.60;;;23.10;61.30;;;;;;4837015;29;20439;-66
2022/09/01 12:37:05;;;;;;;1.85;0.55;;;23.10;60.90;;;;;;4853135;29;20124;-67
2022/09/01 12:39:56;;;;;;;2.20;0.90;;;23.00;60.90;;;;;;4846228;29;20064;-66
2022/09/01 12:42:23;;;;;;;3.17;0.77;;;23.00;61.40;;;;;;4860961;29;20152;-67
2022/09/01 12:44:51;;;;;;;1.73;0.80;;;22.90;61.90;;;;;;4860515;29;20061;-67
2022/09/01 12:47:32;;;;;;;3.80;0.82;;;22.80;62.00;;;;;;4826763;29;20065;-67
2022/09/01 12:50:02;;;;;;;0.57;0.47;;;22.80;62.10;;;;;;4843705;29;20062;-67
2022/09/01 12:52:28;;;;;;;2.85;0.50;;;22.80;61.30;;;;;;4842743;29;20507;-66
2022/09/01 12:55:06;;;;;;;1.65;0.70;;;22.90;60.30;;;;;;4833397;29;20045;-66
2022/09/01 12:57:38;;;;;;;1.52;0.57;;;23.10;58.20;;;;;;4834822;29;20061;-67
2022/09/01 13:00:10;;;;;;;5.25;0.70;;;23.40;58.20;;;;;;4844005;29;20062;-66
2022/09/01 13:02:39;;;;;;;5.85;0.70;;;23.40;58.40;;;;;;4841949;29;20426;-66
2022/09/01 13:05:29;;;;;;;1.42;0.77;;;23.60;59.10;;;;;;4842785;29;20124;-66
2022/09/01 13:07:56;;;;;;;1.13;0.68;;;23.70;57.50;;;;;;4859822;29;20085;-67
2022/09/01 13:10:24;;;;;;;0.82;0.47;;;23.80;57.40;;;;;;4860863;29;20050;-67
2022/09/01 13:12:50;;;;;;;2.38;0.68;;;23.90;57.40;;;;;;4840542;29;20071;-67